Time;durP1;ratioP1;P1;durP2;ratioP2;P2;SDS_P1;SDS_P2;PMS_P1;PMS_P2;Temp;Humidity;BMP_temperature;BMP_pressure;BME280_temperature;BME280_humidity;BME280_pressure;Samples;Min_cycle;Max_cycle;Signal;HPM_P1;HPM_P2
2022/03/05 00:00:46;;;;;;;20.50;10.13;;;3.30;99.90;;;;;;5032155;28;20044;-69
2022/03/05 00:03:49;;;;;;;17.48;9.90;;;3.30;99.90;;;;;;5032206;28;20044;-68
2022/03/05 00:06:53;;;;;;;19.50;11.38;;;3.20;99.90;;;;;;5032714;28;20500;-68
2022/03/05 00:09:57;;;;;;;20.67;9.23;;;3.20;99.90;;;;;;5032691;28;20052;-68
2022/03/05 00:13:04;;;;;;;20.23;10.18;;;3.10;99.90;;;;;;5032295;28;20057;-68
2022/03/05 00:16:08;;;;;;;17.70;9.35;;;3.00;99.90;;;;;;5032291;28;20048;-68
2022/03/05 00:19:12;;;;;;;24.35;13.10;;;2.90;99.90;;;;;;5032515;28;20052;-68
2022/03/05 00:22:16;;;;;;;39.05;16.77;;;2.80;99.90;;;;;;5031600;28;20044;-68
2022/03/05 00:25:23;;;;;;;25.48;12.43;;;2.80;99.90;;;;;;5032682;28;20048;-68
2022/03/05 00:28:27;;;;;;;21.10;10.70;;;2.70;99.90;;;;;;5032242;28;20048;-68
2022/03/05 00:31:32;;;;;;;27.42;13.93;;;2.70;99.90;;;;;;5031002;28;20044;-68
2022/03/05 00:34:36;;;;;;;23.88;11.48;;;2.60;99.90;;;;;;5032267;28;20048;-69
2022/03/05 00:37:41;;;;;;;20.70;10.85;;;2.50;99.90;;;;;;5032044;28;20061;-68
2022/03/05 00:40:46;;;;;;;20.25;11.13;;;2.40;99.90;;;;;;5031271;28;20052;-68
2022/03/05 00:43:50;;;;;;;18.23;10.48;;;2.40;99.90;;;;;;5031485;28;20503;-68
2022/03/05 00:46:55;;;;;;;15.07;9.45;;;2.60;99.90;;;;;;5032120;28;20044;-68
2022/03/05 00:50:00;;;;;;;14.80;8.18;;;2.70;99.90;;;;;;5031928;28;20052;-68
2022/03/05 00:53:04;;;;;;;15.07;8.30;;;2.70;99.90;;;;;;5031562;28;20041;-67
2022/03/05 00:56:08;;;;;;;16.67;7.70;;;2.90;99.90;;;;;;5032058;28;20052;-68
2022/03/05 00:59:12;;;;;;;14.38;7.50;;;3.60;99.90;;;;;;5031758;28;20064;-68
2022/03/05 01:02:17;;;;;;;12.80;7.05;;;3.50;99.90;;;;;;5030990;28;20044;-68
2022/03/05 01:05:21;;;;;;;12.68;7.50;;;3.40;99.90;;;;;;5031553;28;20048;-68
2022/03/05 01:08:26;;;;;;;13.20;7.30;;;3.30;99.90;;;;;;5031425;28;20048;-68
2022/03/05 01:11:30;;;;;;;14.13;7.35;;;3.30;99.90;;;;;;5030965;28;20052;-68
2022/03/05 01:14:35;;;;;;;14.95;6.85;;;3.10;99.90;;;;;;5030897;28;20056;-68
2022/03/05 01:17:39;;;;;;;15.27;8.02;;;3.10;99.90;;;;;;5031484;28;20057;-68
2022/03/05 01:20:44;;;;;;;17.33;7.82;;;3.10;99.90;;;;;;5030519;28;20041;-68
2022/03/05 01:23:48;;;;;;;14.15;8.18;;;3.10;99.90;;;;;;5030287;28;20052;-68
2022/03/05 01:26:52;;;;;;;12.27;7.03;;;3.20;99.90;;;;;;5031150;28;20048;-68
2022/03/05 01:29:56;;;;;;;15.55;6.72;;;3.20;99.90;;;;;;5030989;28;20044;-68
2022/03/05 01:33:01;;;;;;;16.90;8.52;;;3.10;99.90;;;;;;5030834;28;20060;-68
2022/03/05 01:36:05;;;;;;;14.50;7.80;;;3.10;99.90;;;;;;5030768;28;20052;-68
2022/03/05 01:39:09;;;;;;;17.52;8.60;;;3.30;99.90;;;;;;5030657;28;20044;-68
2022/03/05 01:42:13;;;;;;;14.52;7.45;;;3.30;99.90;;;;;;5030643;28;20044;-68
2022/03/05 01:45:17;;;;;;;13.02;7.32;;;3.40;99.90;;;;;;5030563;28;20050;-68
2022/03/05 01:48:22;;;;;;;12.55;7.15;;;3.30;99.90;;;;;;5030992;28;20049;-68
2022/03/05 01:51:26;;;;;;;42.53;14.75;;;3.20;99.90;;;;;;5030259;28;20044;-68
2022/03/05 01:54:31;;;;;;;19.85;8.35;;;3.10;99.90;;;;;;5030219;28;20044;-68
2022/03/05 01:57:35;;;;;;;18.00;8.68;;;3.20;99.90;;;;;;5029981;28;20056;-68
2022/03/05 02:00:39;;;;;;;32.92;12.77;;;3.30;99.90;;;;;;5030198;28;20131;-68
2022/03/05 02:03:43;;;;;;;20.52;8.60;;;3.20;99.90;;;;;;5030623;28;20044;-68
2022/03/05 02:06:47;;;;;;;19.05;8.48;;;3.40;99.90;;;;;;5030715;28;20397;-69
2022/03/05 02:09:51;;;;;;;55.30;19.05;;;3.90;99.90;;;;;;5030161;28;20113;-68
2022/03/05 02:12:56;;;;;;;27.95;9.35;;;3.80;99.90;;;;;;5030246;28;20584;-68
2022/03/05 02:16:00;;;;;;;21.30;10.15;;;3.90;99.90;;;;;;5030294;28;20072;-68
2022/03/05 02:19:06;;;;;;;17.85;8.30;;;4.00;99.90;;;;;;5029456;28;20049;-67
2022/03/05 02:22:10;;;;;;;15.55;8.13;;;4.00;99.90;;;;;;5029766;28;20199;-67
2022/03/05 02:25:14;;;;;;;15.52;7.60;;;4.10;99.90;;;;;;5029707;28;20397;-68
2022/03/05 02:28:19;;;;;;;16.23;7.82;;;4.00;99.90;;;;;;5030342;28;20045;-68
2022/03/05 02:31:23;;;;;;;21.20;8.55;;;4.00;99.90;;;;;;5028675;28;20045;-68
2022/03/05 02:34:29;;;;;;;16.45;8.88;;;3.90;99.90;;;;;;5029142;28;20045;-69
2022/03/05 02:37:33;;;;;;;16.77;8.32;;;3.80;99.90;;;;;;5030223;28;20044;-68
2022/03/05 02:40:37;;;;;;;16.48;8.23;;;3.70;99.90;;;;;;5029663;28;20506;-67
2022/03/05 02:43:41;;;;;;;18.90;8.90;;;3.70;99.90;;;;;;5030535;28;20060;-68
2022/03/05 02:46:45;;;;;;;16.88;8.85;;;3.90;99.90;;;;;;5030222;28;20483;-68
2022/03/05 02:49:49;;;;;;;19.98;9.05;;;3.90;99.90;;;;;;5030342;28;20048;-68
2022/03/05 02:52:53;;;;;;;20.15;8.45;;;3.90;99.90;;;;;;5029712;28;20060;-68
2022/03/05 02:55:57;;;;;;;16.95;8.45;;;3.80;99.90;;;;;;5030057;28;20491;-68
2022/03/05 02:59:02;;;;;;;18.98;8.90;;;3.80;99.90;;;;;;5030223;28;20049;-68
2022/03/05 03:02:06;;;;;;;23.13;9.13;;;3.90;99.90;;;;;;5029361;28;20503;-68
2022/03/05 03:05:10;;;;;;;20.00;9.43;;;4.00;99.90;;;;;;5029868;28;20048;-67
2022/03/05 03:08:15;;;;;;;24.00;7.97;;;3.90;99.90;;;;;;5030311;28;20052;-68
2022/03/05 03:11:18;;;;;;;18.02;8.38;;;3.90;99.90;;;;;;5029388;28;20056;-68
2022/03/05 03:14:22;;;;;;;21.23;10.38;;;3.80;99.90;;;;;;5029894;28;20052;-68
2022/03/05 03:17:27;;;;;;;19.25;8.77;;;3.80;99.90;;;;;;5030143;28;20064;-67
2022/03/05 03:20:32;;;;;;;18.15;8.35;;;3.80;99.90;;;;;;5029707;28;20052;-68
2022/03/05 03:23:36;;;;;;;18.00;8.52;;;3.90;99.90;;;;;;5030079;28;20504;-68
2022/03/05 03:26:45;;;;;;;18.63;8.07;;;3.70;99.90;;;;;;5030054;28;20048;-69
2022/03/05 03:29:48;;;;;;;13.75;8.02;;;3.60;99.90;;;;;;5029968;28;20060;-68
2022/03/05 03:32:52;;;;;;;18.48;8.90;;;3.40;99.90;;;;;;5029421;28;20048;-68
2022/03/05 03:35:56;;;;;;;25.33;10.32;;;3.40;99.90;;;;;;5029460;28;20044;-68
2022/03/05 03:39:01;;;;;;;21.50;10.30;;;3.40;99.90;;;;;;5029801;28;20049;-68
2022/03/05 03:42:05;;;;;;;20.75;9.80;;;3.40;99.90;;;;;;5028881;28;20072;-68
2022/03/05 03:45:09;;;;;;;22.48;8.30;;;3.40;99.90;;;;;;5029474;28;20492;-69
2022/03/05 03:48:13;;;;;;;17.08;8.07;;;3.40;99.90;;;;;;5033336;28;20048;-68
2022/03/05 03:51:17;;;;;;;17.60;7.88;;;3.20;99.90;;;;;;5032448;28;20056;-68
2022/03/05 03:54:21;;;;;;;15.05;7.15;;;3.00;99.90;;;;;;5033071;28;20062;-68
2022/03/05 03:57:25;;;;;;;16.77;8.23;;;2.90;99.90;;;;;;5032624;28;20052;-67
2022/03/05 04:00:29;;;;;;;21.10;9.43;;;2.80;99.90;;;;;;5032652;28;20522;-68
2022/03/05 04:03:33;;;;;;;20.23;8.73;;;2.80;99.90;;;;;;5032684;28;20048;-68
2022/03/05 04:09:59;;;;;;;22.58;10.52;;;2.70;99.90;;;;;;5032882;28;20060;-67
2022/03/05 04:13:04;;;;;;;23.88;11.35;;;2.80;99.90;;;;;;5032713;28;20040;-68
2022/03/05 04:16:08;;;;;;;23.20;11.50;;;2.80;99.90;;;;;;5032322;28;20048;-68
2022/03/05 04:19:12;;;;;;;28.55;11.60;;;3.00;99.90;;;;;;5032459;28;20052;-68
2022/03/05 04:22:16;;;;;;;24.42;10.23;;;3.20;99.90;;;;;;5031426;28;20056;-68
2022/03/05 04:25:21;;;;;;;24.65;10.07;;;3.20;99.90;;;;;;5032297;28;20056;-68
2022/03/05 04:28:25;;;;;;;26.45;10.05;;;3.10;99.90;;;;;;5032168;28;20139;-68
2022/03/05 04:31:29;;;;;;;23.52;8.25;;;3.00;99.90;;;;;;5031933;28;20407;-68
2022/03/05 04:34:34;;;;;;;21.23;9.80;;;2.70;99.90;;;;;;5032085;28;20148;-68
2022/03/05 04:37:38;;;;;;;26.20;10.82;;;2.60;99.90;;;;;;5032072;28;20318;-68
2022/03/05 04:40:42;;;;;;;27.38;11.23;;;2.50;99.90;;;;;;5031464;28;20052;-68
2022/03/05 04:43:47;;;;;;;27.35;11.10;;;2.40;99.90;;;;;;5031948;28;20068;-68
2022/03/05 04:46:52;;;;;;;27.25;11.40;;;2.30;99.90;;;;;;5031863;28;20068;-68
2022/03/05 04:49:55;;;;;;;23.33;11.13;;;2.20;99.90;;;;;;5031850;28;20048;-68
2022/03/05 04:53:00;;;;;;;30.60;11.98;;;2.30;99.90;;;;;;5031668;28;20060;-68
2022/03/05 04:56:05;;;;;;;23.10;11.07;;;2.30;99.90;;;;;;5031477;28;20048;-68
2022/03/05 04:59:09;;;;;;;23.23;10.57;;;2.20;99.90;;;;;;5031128;28;20056;-68
2022/03/05 05:02:13;;;;;;;25.38;11.15;;;2.30;99.90;;;;;;5030912;28;20044;-68
2022/03/05 05:05:17;;;;;;;24.67;11.02;;;2.20;99.90;;;;;;5031782;28;20385;-68
2022/03/05 05:08:21;;;;;;;27.55;12.60;;;2.20;99.90;;;;;;5031594;28;20509;-68
2022/03/05 05:11:25;;;;;;;26.90;11.98;;;2.20;99.90;;;;;;5031159;28;20048;-68
2022/03/05 05:14:28;;;;;;;23.67;11.40;;;2.20;99.90;;;;;;5031341;28;20060;-68
2022/03/05 05:17:36;;;;;;;26.55;12.45;;;2.20;99.90;;;;;;5031438;28;20456;-68
2022/03/05 05:20:40;;;;;;;24.63;11.35;;;2.20;99.90;;;;;;5030643;28;20519;-68
2022/03/05 05:23:44;;;;;;;27.80;11.90;;;2.20;99.90;;;;;;5030734;28;20232;-68
2022/03/05 05:26:48;;;;;;;25.30;10.73;;;2.20;99.90;;;;;;5030448;28;20043;-68
2022/03/05 05:29:52;;;;;;;23.67;11.27;;;2.10;99.90;;;;;;5030898;28;20048;-68
2022/03/05 05:32:56;;;;;;;22.70;11.02;;;2.10;99.90;;;;;;5030984;28;20049;-68
2022/03/05 05:36:00;;;;;;;28.98;11.63;;;2.00;99.90;;;;;;5018621;28;20048;-68
2022/03/05 05:39:08;;;;;;;26.50;11.82;;;1.90;99.90;;;;;;5030462;28;20056;-68
2022/03/05 05:42:12;;;;;;;26.67;11.50;;;1.90;99.90;;;;;;5030178;28;20040;-68
2022/03/05 05:45:16;;;;;;;29.42;14.27;;;1.90;99.90;;;;;;5030298;28;20044;-68
2022/03/05 05:48:21;;;;;;;29.67;13.70;;;1.80;99.90;;;;;;5030649;28;20040;-68
2022/03/05 05:51:26;;;;;;;29.27;12.32;;;1.80;99.90;;;;;;5030149;28;20061;-68
2022/03/05 05:54:30;;;;;;;27.67;13.50;;;1.80;99.90;;;;;;5030503;28;20048;-68
2022/03/05 05:57:33;;;;;;;26.48;12.38;;;1.80;99.90;;;;;;5030520;28;20519;-68
2022/03/05 06:00:37;;;;;;;27.35;12.80;;;1.90;99.90;;;;;;5029997;28;20064;-68
2022/03/05 06:03:44;;;;;;;27.63;13.07;;;2.00;99.90;;;;;;5030325;28;20124;-68
2022/03/05 06:06:48;;;;;;;29.33;12.65;;;2.00;99.90;;;;;;5030401;28;20036;-68
2022/03/05 06:09:52;;;;;;;26.80;12.75;;;2.10;99.90;;;;;;5030308;28;20045;-68
2022/03/05 06:12:57;;;;;;;29.88;12.52;;;2.10;99.90;;;;;;5030319;28;20064;-69
2022/03/05 06:16:01;;;;;;;27.23;13.25;;;2.20;99.90;;;;;;5030300;28;20057;-68
2022/03/05 06:19:06;;;;;;;30.45;13.52;;;2.30;99.90;;;;;;5030114;28;20052;-68
2022/03/05 06:22:10;;;;;;;24.60;11.73;;;2.40;99.90;;;;;;5029763;28;20048;-68
2022/03/05 06:25:14;;;;;;;28.63;13.13;;;2.70;99.90;;;;;;5030286;28;20113;-68
2022/03/05 06:28:19;;;;;;;24.63;12.38;;;2.60;99.90;;;;;;5030080;28;20040;-68
2022/03/05 06:31:23;;;;;;;32.80;11.32;;;2.90;99.90;;;;;;5029777;28;20044;-68
2022/03/05 06:34:27;;;;;;;25.30;12.57;;;4.50;99.90;;;;;;5030312;28;20045;-69
2022/03/05 06:37:32;;;;;;;25.27;12.38;;;6.30;99.90;;;;;;5030088;28;20407;-68
2022/03/05 06:40:36;;;;;;;22.50;10.80;;;8.10;99.90;;;;;;5029529;28;20052;-69
2022/03/05 06:43:40;;;;;;;23.10;12.32;;;9.10;98.10;;;;;;5030001;28;20049;-69
2022/03/05 06:46:44;;;;;;;23.92;11.80;;;9.50;97.40;;;;;;5030290;28;20534;-69
2022/03/05 06:49:47;;;;;;;24.10;12.93;;;9.00;96.10;;;;;;5029834;28;20056;-69
2022/03/05 06:52:52;;;;;;;19.55;11.13;;;10.70;95.40;;;;;;5029587;28;20416;-69
2022/03/05 06:55:56;;;;;;;22.95;12.43;;;12.30;95.60;;;;;;5029865;28;20238;-69
2022/03/05 06:59:01;;;;;;;19.13;11.07;;;12.60;92.60;;;;;;5029713;28;20044;-69
2022/03/05 07:02:05;;;;;;;26.48;12.85;;;12.80;93.10;;;;;;5029194;28;20052;-69
2022/03/05 07:05:09;;;;;;;23.35;12.65;;;14.20;91.20;;;;;;5029886;28;20041;-69
2022/03/05 07:08:13;;;;;;;25.77;12.57;;;15.40;90.40;;;;;;5029646;28;20052;-69
2022/03/05 07:11:18;;;;;;;20.13;12.40;;;16.50;87.10;;;;;;5029062;28;20044;-69
2022/03/05 07:14:22;;;;;;;19.73;12.98;;;17.50;84.60;;;;;;5029950;28;20056;-69
2022/03/05 07:17:26;;;;;;;24.85;12.98;;;17.50;77.80;;;;;;5029773;28;20052;-69
2022/03/05 07:20:30;;;;;;;21.65;12.68;;;16.00;80.50;;;;;;5030040;28;20048;-69
2022/03/05 07:23:34;;;;;;;22.27;13.18;;;15.50;79.40;;;;;;5033530;28;20428;-68
2022/03/05 07:26:38;;;;;;;19.73;12.95;;;16.70;78.10;;;;;;5033143;28;20088;-69
2022/03/05 07:29:43;;;;;;;20.38;13.13;;;17.50;76.50;;;;;;5033259;28;20044;-69
2022/03/05 07:32:47;;;;;;;22.02;12.98;;;18.00;72.20;;;;;;5033010;28;20045;-69
2022/03/05 07:35:52;;;;;;;20.80;13.27;;;15.30;74.40;;;;;;5033074;28;20056;-69
2022/03/05 07:38:57;;;;;;;21.17;12.27;;;16.20;75.60;;;;;;5033013;28;20048;-69
2022/03/05 07:42:02;;;;;;;20.75;12.15;;;15.30;78.10;;;;;;5032262;28;20060;-69
2022/03/05 07:45:08;;;;;;;23.55;13.38;;;15.50;77.20;;;;;;5033228;28;20044;-69
2022/03/05 07:48:12;;;;;;;21.83;13.25;;;14.00;77.30;;;;;;5033076;28;20496;-69
2022/03/05 07:51:16;;;;;;;19.75;11.57;;;14.10;81.60;;;;;;5032338;28;20207;-69
2022/03/05 07:54:20;;;;;;;27.95;13.00;;;16.50;78.20;;;;;;5033030;28;20052;-69
2022/03/05 07:57:24;;;;;;;20.98;12.57;;;16.30;75.40;;;;;;5032833;28;20516;-70
2022/03/05 08:00:28;;;;;;;21.55;12.45;;;16.60;75.90;;;;;;5032324;28;20053;-69
2022/03/05 08:03:32;;;;;;;19.92;12.80;;;15.70;75.20;;;;;;5032942;28;20516;-69
2022/03/05 08:06:37;;;;;;;23.38;13.95;;;16.20;76.60;;;;;;5032822;28;20434;-69
2022/03/05 08:09:43;;;;;;;20.35;14.13;;;16.60;75.20;;;;;;5031823;28;20041;-69
2022/03/05 08:12:48;;;;;;;23.55;13.68;;;15.20;76.90;;;;;;5032385;28;20401;-69
2022/03/05 08:15:52;;;;;;;23.67;14.35;;;14.90;77.90;;;;;;5032781;28;20120;-69
2022/03/05 08:18:56;;;;;;;23.85;14.30;;;14.40;76.90;;;;;;5032784;28;20329;-69
2022/03/05 08:22:00;;;;;;;22.65;13.95;;;13.70;78.80;;;;;;5031817;28;20052;-69
2022/03/05 08:25:05;;;;;;;20.02;13.43;;;14.10;77.80;;;;;;5032551;28;20052;-69
2022/03/05 08:28:09;;;;;;;20.77;12.80;;;14.60;77.40;;;;;;5032431;28;20041;-69
2022/03/05 08:31:13;;;;;;;21.55;13.65;;;14.30;74.70;;;;;;5031962;28;20056;-69
2022/03/05 08:34:17;;;;;;;22.88;13.32;;;13.50;75.80;;;;;;5032294;28;20104;-69
2022/03/05 08:37:21;;;;;;;23.63;14.25;;;13.60;77.50;;;;;;5032248;28;20061;-69
2022/03/05 08:40:25;;;;;;;24.88;14.73;;;14.10;74.70;;;;;;5031546;28;20048;-69
2022/03/05 08:43:29;;;;;;;24.88;14.18;;;14.00;74.20;;;;;;5031313;28;20048;-68
2022/03/05 08:46:33;;;;;;;20.77;13.05;;;12.60;74.80;;;;;;5032206;28;20054;-69
2022/03/05 08:49:37;;;;;;;24.75;13.70;;;12.50;75.40;;;;;;5031682;28;20065;-68
2022/03/05 08:52:41;;;;;;;24.73;13.13;;;11.70;77.00;;;;;;5031463;28;20492;-68
2022/03/05 08:55:45;;;;;;;27.45;14.13;;;11.50;75.40;;;;;;5031937;28;20052;-68
2022/03/05 08:58:49;;;;;;;21.55;12.30;;;10.90;77.40;;;;;;5032257;28;20507;-68
2022/03/05 09:01:53;;;;;;;24.92;12.73;;;11.20;76.20;;;;;;5031627;28;20044;-69
2022/03/05 09:04:57;;;;;;;22.58;13.25;;;11.10;75.40;;;;;;5031859;28;20041;-68
2022/03/05 09:08:01;;;;;;;23.30;12.82;;;11.20;77.60;;;;;;5031854;28;20040;-69
2022/03/05 09:11:06;;;;;;;22.17;11.98;;;13.30;77.60;;;;;;5030990;28;20487;-69
2022/03/05 09:14:10;;;;;;;24.20;13.10;;;16.50;71.60;;;;;;5031016;28;20052;-69
2022/03/05 09:17:14;;;;;;;21.13;12.60;;;15.50;68.20;;;;;;5031768;28;20060;-68
2022/03/05 09:20:18;;;;;;;22.45;13.25;;;13.60;70.40;;;;;;5031351;28;20048;-68
2022/03/05 09:23:22;;;;;;;21.23;12.02;;;14.60;72.00;;;;;;5031532;28;20053;-69
2022/03/05 09:26:27;;;;;;;20.13;11.43;;;15.60;70.10;;;;;;5031683;28;20037;-68
2022/03/05 09:29:31;;;;;;;21.85;13.10;;;16.50;69.40;;;;;;5031416;28;20041;-68
2022/03/05 09:32:35;;;;;;;19.08;12.57;;;16.10;69.10;;;;;;5031566;28;20053;-69
2022/03/05 09:35:39;;;;;;;18.15;11.65;;;17.90;68.40;;;;;;5031309;28;20048;-69
2022/03/05 09:38:43;;;;;;;20.33;12.38;;;18.60;65.50;;;;;;5030805;28;20128;-68
2022/03/05 09:41:47;;;;;;;18.73;11.45;;;18.70;65.00;;;;;;5030640;28;20409;-69
2022/03/05 09:44:51;;;;;;;21.92;13.13;;;18.60;65.90;;;;;;5030838;28;20040;-68
2022/03/05 09:47:56;;;;;;;17.80;12.00;;;18.00;63.30;;;;;;5030779;28;20044;-69
2022/03/05 09:51:00;;;;;;;17.48;11.80;;;20.90;63.10;;;;;;5030302;28;20048;-68
2022/03/05 09:54:05;;;;;;;15.50;11.18;;;19.40;62.80;;;;;;5030994;28;20052;-69
2022/03/05 09:57:12;;;;;;;19.33;11.88;;;20.60;61.30;;;;;;5031344;28;20052;-69
2022/03/05 10:00:17;;;;;;;18.75;11.65;;;20.10;60.20;;;;;;5030821;28;20056;-69
2022/03/05 10:03:22;;;;;;;18.63;11.90;;;20.60;60.40;;;;;;5030333;28;20049;-68
2022/03/05 10:06:27;;;;;;;18.27;11.65;;;20.20;59.20;;;;;;5030652;28;20082;-68
2022/03/05 10:09:31;;;;;;;15.93;11.07;;;19.70;60.20;;;;;;5030534;28;20071;-68
2022/03/05 10:12:36;;;;;;;15.75;11.25;;;20.50;59.60;;;;;;5030722;28;20479;-69
2022/03/05 10:15:40;;;;;;;13.95;10.38;;;22.50;57.30;;;;;;5030280;28;20048;-69
2022/03/05 10:18:44;;;;;;;15.43;11.18;;;23.10;56.40;;;;;;5030648;28;20072;-69
2022/03/05 10:22:00;;;;;;;16.63;11.60;;;22.90;55.30;;;;;;5029822;28;20049;-69
2022/03/05 10:25:05;;;;;;;17.65;11.85;;;23.40;54.70;;;;;;5030760;28;20580;-69
2022/03/05 10:28:20;;;;;;;17.35;11.60;;;24.90;53.40;;;;;;5030304;28;20520;-68
2022/03/05 10:31:26;;;;;;;14.38;11.05;;;25.90;50.00;;;;;;5029908;28;20049;-69
2022/03/05 10:34:53;;;;;;;15.15;11.25;;;25.50;50.40;;;;;;5030709;28;20056;-68
2022/03/05 10:37:57;;;;;;;12.23;9.82;;;26.40;50.20;;;;;;5030284;28;20082;-68
2022/03/05 10:41:01;;;;;;;13.25;9.88;;;25.50;49.20;;;;;;5029522;28;20040;-68
2022/03/05 10:44:11;;;;;;;14.27;10.32;;;26.40;48.80;;;;;;5030312;28;20049;-69
2022/03/05 10:47:15;;;;;;;13.45;9.98;;;27.00;47.80;;;;;;5030040;28;20096;-69
2022/03/05 10:50:19;;;;;;;14.13;9.70;;;25.70;47.20;;;;;;5029821;28;20048;-69
2022/03/05 10:53:43;;;;;;;12.20;8.98;;;26.40;47.60;;;;;;5029980;28;20052;-69
2022/03/05 10:56:48;;;;;;;15.70;10.57;;;26.70;46.00;;;;;;5033010;28;20515;-69
2022/03/05 10:59:54;;;;;;;12.70;9.60;;;23.90;47.30;;;;;;5034133;28;20040;-68
2022/03/05 11:03:03;;;;;;;14.77;10.98;;;22.70;47.60;;;;;;5033925;28;20533;-72
2022/03/05 11:06:06;;;;;;;13.98;10.13;;;21.80;48.60;;;;;;5034280;28;20403;-69
2022/03/05 11:09:12;;;;;;;20.17;11.32;;;20.60;50.30;;;;;;5034071;28;20036;-68
2022/03/05 11:12:21;;;;;;;13.32;10.25;;;20.90;50.70;;;;;;5033090;28;20507;-69
2022/03/05 11:15:25;;;;;;;14.20;9.93;;;22.70;49.50;;;;;;5033708;28;20412;-69
2022/03/05 11:18:30;;;;;;;16.45;11.48;;;20.80;49.30;;;;;;5032743;28;20041;-68
2022/03/05 11:21:34;;;;;;;16.33;10.15;;;18.70;52.30;;;;;;5031746;28;20052;-69
2022/03/05 11:24:40;;;;;;;16.33;10.57;;;18.60;52.50;;;;;;5032602;28;20052;-66
2022/03/05 11:27:56;;;;;;;16.63;10.93;;;17.70;54.00;;;;;;5032465;28;20062;-68
2022/03/05 11:31:00;;;;;;;15.90;10.48;;;19.60;52.60;;;;;;5031487;28;20045;-69
2022/03/05 11:34:13;;;;;;;15.88;10.65;;;21.60;51.40;;;;;;5032510;28;20068;-68
2022/03/05 11:37:33;;;;;;;16.73;11.25;;;21.00;50.60;;;;;;5032089;28;20040;-69
2022/03/05 11:40:40;;;;;;;15.93;10.90;;;19.20;53.00;;;;;;5032291;28;20045;-68
2022/03/05 11:43:46;;;;;;;17.20;10.90;;;19.70;52.30;;;;;;5032105;28;20040;-69
2022/03/05 11:47:19;;;;;;;19.55;10.25;;;19.70;52.50;;;;;;5031562;28;20586;-68
2022/03/05 11:50:23;;;;;;;17.65;11.85;;;17.40;52.30;;;;;;5031923;28;20044;-68
2022/03/05 11:53:28;;;;;;;24.08;15.45;;;15.80;53.90;;;;;;5031246;28;20044;-69
2022/03/05 11:56:32;;;;;;;18.92;11.23;;;16.10;54.60;;;;;;5031271;28;20044;-68
2022/03/05 11:59:41;;;;;;;15.30;10.32;;;16.50;54.70;;;;;;5032380;28;20048;-68
2022/03/05 12:02:46;;;;;;;19.27;11.40;;;15.70;55.50;;;;;;5031152;28;20404;-68
2022/03/05 12:05:52;;;;;;;18.25;10.90;;;14.90;56.40;;;;;;5031607;28;20594;-68
2022/03/05 12:08:56;;;;;;;21.10;11.65;;;14.30;57.00;;;;;;5031725;28;20156;-68
2022/03/05 12:12:03;;;;;;;17.42;11.20;;;13.60;59.00;;;;;;5030348;28;20048;-68
2022/03/05 12:15:08;;;;;;;20.00;11.82;;;13.20;58.80;;;;;;4963073;28;1975519;-68
2022/03/05 12:18:15;;;;;;;21.45;12.32;;;12.60;59.70;;;;;;5032814;28;20034;-68
2022/03/05 12:21:20;;;;;;;18.63;11.57;;;11.90;60.20;;;;;;5032223;28;20041;-68
2022/03/05 12:24:24;;;;;;;17.10;9.68;;;11.60;59.50;;;;;;5032083;28;20040;-68
2022/03/05 12:27:35;;;;;;;16.85;9.65;;;11.60;60.30;;;;;;5032335;28;20041;-67
2022/03/05 12:30:39;;;;;;;18.08;9.82;;;12.30;60.90;;;;;;5031649;28;20535;-68
2022/03/05 12:33:46;;;;;;;18.00;11.02;;;12.90;59.20;;;;;;5031882;28;20052;-69
2022/03/05 12:36:50;;;;;;;15.18;9.50;;;12.90;58.50;;;;;;5032432;28;20053;-68
2022/03/05 12:39:57;;;;;;;17.05;8.43;;;12.10;58.90;;;;;;5032010;28;20507;-68
2022/03/05 12:43:04;;;;;;;14.98;8.45;;;13.80;59.30;;;;;;5030817;28;20048;-68
2022/03/05 12:46:08;;;;;;;16.10;9.43;;;13.80;59.70;;;;;;5032185;28;20053;-68
2022/03/05 12:49:12;;;;;;;16.45;9.93;;;14.60;58.30;;;;;;5031982;28;20507;-68
2022/03/05 12:52:19;;;;;;;17.27;10.75;;;14.20;59.20;;;;;;5031459;28;20044;-69
2022/03/05 12:55:31;;;;;;;20.23;10.45;;;15.00;58.00;;;;;;5032240;28;20040;-68
2022/03/05 12:58:39;;;;;;;15.87;10.60;;;14.20;58.20;;;;;;5031777;28;20044;-68
2022/03/05 13:01:44;;;;;;;16.27;11.15;;;14.00;57.90;;;;;;5031716;28;20040;-68
2022/03/05 13:04:52;;;;;;;18.40;10.02;;;13.80;58.20;;;;;;5031599;28;20385;-68
2022/03/05 13:07:56;;;;;;;16.35;9.35;;;14.00;58.40;;;;;;5032000;28;20057;-68
2022/03/05 13:11:12;;;;;;;19.38;10.25;;;13.30;57.60;;;;;;5031488;28;20044;-68
2022/03/05 13:14:20;;;;;;;16.88;9.52;;;15.30;56.30;;;;;;5031310;28;20052;-68
2022/03/05 13:17:24;;;;;;;16.17;9.10;;;17.40;53.30;;;;;;5031759;28;20048;-69
2022/03/05 13:20:31;;;;;;;13.95;8.73;;;19.70;51.50;;;;;;5030997;28;20044;-69
2022/03/05 13:23:37;;;;;;;13.23;8.95;;;21.20;51.60;;;;;;5031262;28;20179;-69
2022/03/05 13:26:45;;;;;;;12.50;8.90;;;23.10;49.30;;;;;;5031540;28;20124;-69
2022/03/05 13:29:54;;;;;;;13.80;9.73;;;21.00;49.40;;;;;;5031895;28;20052;-69
2022/03/05 13:32:57;;;;;;;14.05;9.65;;;18.30;51.10;;;;;;5031062;28;20048;-68
2022/03/05 13:36:22;;;;;;;16.50;10.05;;;16.10;54.10;;;;;;5031907;28;20056;-68
2022/03/05 13:39:28;;;;;;;14.85;9.15;;;13.70;55.10;;;;;;5030799;28;20044;-68
2022/03/05 13:42:38;;;;;;;16.85;9.18;;;13.50;56.00;;;;;;5030622;28;20056;-68
2022/03/05 13:45:42;;;;;;;18.85;10.52;;;12.90;56.90;;;;;;5031453;28;20049;-68
2022/03/05 13:48:52;;;;;;;16.33;11.60;;;14.00;56.80;;;;;;5031171;28;20506;-67
2022/03/05 13:51:57;;;;;;;21.38;12.88;;;13.50;57.10;;;;;;5030309;28;20052;-68
2022/03/05 13:55:10;;;;;;;19.42;10.63;;;13.70;57.70;;;;;;5030526;28;20048;-68
2022/03/05 13:58:21;;;;;;;14.50;9.95;;;15.10;57.00;;;;;;5030956;28;20052;-69
2022/03/05 14:01:37;;;;;;;15.27;10.15;;;15.40;55.40;;;;;;5029999;28;20048;-68
2022/03/05 14:05:06;;;;;;;13.82;8.95;;;14.60;56.60;;;;;;5030864;28;20044;-69
2022/03/05 14:08:10;;;;;;;16.58;9.73;;;14.20;56.90;;;;;;5030634;28;20524;-69
2022/03/05 14:11:14;;;;;;;16.00;9.32;;;15.60;55.70;;;;;;5029946;28;20052;-69
2022/03/05 14:14:19;;;;;;;13.90;8.25;;;17.10;54.10;;;;;;5031322;28;20072;-69
2022/03/05 14:17:40;;;;;;;14.73;9.00;;;16.90;52.00;;;;;;5031021;28;20388;-69
2022/03/05 14:20:50;;;;;;;14.60;8.48;;;15.70;53.00;;;;;;5030191;28;20048;-69
2022/03/05 14:23:53;;;;;;;12.30;8.05;;;15.60;53.20;;;;;;5030345;28;20525;-68
2022/03/05 14:26:57;;;;;;;20.00;8.82;;;16.40;53.00;;;;;;5030601;28;20052;-69
2022/03/05 14:30:02;;;;;;;13.18;8.73;;;16.30;53.10;;;;;;5029098;28;20503;-69
2022/03/05 14:33:06;;;;;;;16.63;10.85;;;17.40;53.40;;;;;;5029207;28;20617;-68
2022/03/05 14:36:10;;;;;;;19.42;10.65;;;17.90;52.50;;;;;;5030771;28;20048;-67
2022/03/05 14:39:14;;;;;;;14.85;9.70;;;17.20;53.00;;;;;;5029070;28;20109;-68
2022/03/05 14:42:18;;;;;;;14.50;10.23;;;17.00;54.00;;;;;;5029565;28;20056;-69
2022/03/05 14:45:22;;;;;;;14.15;8.10;;;18.10;53.10;;;;;;5029416;28;20049;-68
2022/03/05 14:48:27;;;;;;;14.77;9.95;;;19.30;51.70;;;;;;5030080;28;20048;-69
2022/03/05 14:51:31;;;;;;;15.07;9.82;;;20.00;51.70;;;;;;5029609;28;20060;-68
2022/03/05 14:54:35;;;;;;;18.10;10.95;;;19.20;51.10;;;;;;5029837;28;20048;-68
2022/03/05 14:57:40;;;;;;;14.95;11.38;;;18.30;51.00;;;;;;5030159;28;20040;-68
2022/03/05 15:00:44;;;;;;;17.67;10.63;;;16.90;53.40;;;;;;5029247;28;20396;-69
2022/03/05 15:03:48;;;;;;;17.65;10.98;;;15.20;55.40;;;;;;5030367;28;20049;-68
2022/03/05 15:06:52;;;;;;;16.35;9.75;;;13.70;56.80;;;;;;5030490;28;20060;-68
2022/03/05 15:09:56;;;;;;;17.80;9.85;;;12.10;59.20;;;;;;5030057;28;20044;-67
2022/03/05 15:13:00;;;;;;;17.45;9.65;;;10.70;60.80;;;;;;5029543;28;20053;-66
2022/03/05 15:16:04;;;;;;;26.05;14.48;;;9.70;63.00;;;;;;5029763;28;20056;-68
2022/03/05 15:19:08;;;;;;;21.90;11.48;;;9.50;63.30;;;;;;5029895;28;20056;-68
2022/03/05 15:22:12;;;;;;;18.85;12.00;;;9.10;64.60;;;;;;5028458;28;20388;-67
2022/03/05 15:25:18;;;;;;;22.77;11.55;;;9.00;65.40;;;;;;5030676;28;20511;-67
2022/03/05 15:28:22;;;;;;;17.65;10.13;;;8.90;64.10;;;;;;5030592;28;20049;-67
2022/03/05 15:31:27;;;;;;;18.65;10.60;;;9.00;64.80;;;;;;5017333;28;20045;-68
2022/03/05 15:34:31;;;;;;;18.90;9.95;;;9.70;65.00;;;;;;5029455;28;20051;-68
2022/03/05 15:37:35;;;;;;;18.30;9.55;;;10.10;64.40;;;;;;5029607;28;20044;-69
2022/03/05 15:40:39;;;;;;;20.55;9.88;;;10.10;63.50;;;;;;5029193;28;20041;-68
2022/03/05 15:43:43;;;;;;;23.63;12.82;;;9.40;64.20;;;;;;5033368;28;20060;-68
2022/03/05 15:46:47;;;;;;;17.73;9.27;;;9.10;65.00;;;;;;5033367;28;20071;-68
2022/03/05 15:49:51;;;;;;;16.02;9.63;;;9.10;64.60;;;;;;5033769;28;20048;-68
2022/03/05 15:52:55;;;;;;;16.65;9.65;;;9.20;63.40;;;;;;5032907;28;20076;-68